Tiempo atmosférico en la estación meteorológica de Ibias, San Antolin, Asturias (762 m.)



Fecha
DESCASC
Temp. máxima en grados centígrados (hora)
DESCASC
Temp. mínima en grados centígrados (hora)
DESCASC
Temp. media en grados centígrados
DESCASC
Racha de viento máxima en m/sg (hora)
DESCASC
Velocidad máxima media en intervalos de 10 minutos(hora)
DESCASC
Precipitaciones diarias en mm
DESCASC
Precipitaciones de 00:00 a 06:00 en mm
DESCASC
Precipitaciones de 06:00 a 12:00 en mm
DESCASC
Precipitaciones de 12:00 a 18:00 en mm
DESCASC
Precipitaciones de 18:00 a 24:00 en mm
DESCASC
16-06-2019 23.3 (15:10) 8.7 (08:00) 16 10.83 (13:40) 4.44 (16:20) 0 0 0 0 0
15-06-2019 18.4 (17:20) 8.4 (05:00) 13.4 11.39 (14:10) 7.22 (14:20) 0 0 0 0 0
14-06-2019 17 (16:30) 4.5 (07:20) 10.8 8.61 (14:50) 5.28 (14:30) 0.2 0 0 0 0.2
13-06-2019 15.5 (18:30) 6.4 (00:00) 11 7.22 (14:20) 3.89 (11:50) 0 0 0 0 0
12-06-2019 14.7 (17:50) 5.4 (00:00) 10 6.67 (20:10) 3.89 (15:00) 0 0 0 0 0
11-06-2019 12.9 (16:40) 6.1 (00:00) 9.5 8.61 (14:40) 3.89 (11:10) 2.2 1.8 0.2 0.2 0
10-06-2019 16.3 (16:40) 6.8 (00:00) 11.5 8.06 (15:50) 3.89 (16:40) 0 0 0 0 0
09-06-2019 15.2 (14:10) 7.2 (00:00) 11.2 7.22 (16:10) 3.33 (16:10) 0 0 0 0 0
08-06-2019 15.9 (15:50) 4.6 (00:00) 10.2 7.78 (19:10) 4.44 (19:10) 0 0 0 0 0
07-06-2019 10.5 (15:30) 4.6 (00:00) 7.5 19.72 (02:30) 10.83 (05:50) 12.2 1.8 1.2 5 4.2
06-06-2019 13.6 (14:20) 5.7 (00:00) 9.7 21.39 (19:50) 12.78 (19:40) 6.2 0 0 0.8 5.4
05-06-2019 10.8 (14:30) 5.4 (00:00) 8.1 14.44 (13:20) 8.61 (15:20) 9 0.6 0.4 5.8 2.2
04-06-2019 16.6 (16:40) 8.6 (00:00) 12.6 15.56 (09:30) 8.33 (18:30) 2.2 0 1 1.2 0
03-06-2019 23.7 (16:20) 13.7 (00:00) 18.7 11.67 (18:20) 7.78 (18:20) 0 0 0 0 0
02-06-2019 25 (16:20) 15.1 (00:00) 20.1 13.61 (14:30) 8.89 (14:40) 0 0 0 0 0
01-06-2019 30.2 (17:40) 17.4 (00:00) 23.8 13.33 (15:30) 8.61 (16:00) 0 0 0 0 0
31-05-2019 31.4 (17:40) 17.3 (00:00) 24.3 6.39 (18:00) 4.72 (02:00) 0 0 0 0 0
30-05-2019 29.5 (17:00) 12.3 (00:00) 20.9 7.22 (19:10) 3.89 (22:30) 0 0 0 0 0
29-05-2019 24.2 (17:20) 5.9 (00:00) 15.1 8.33 (13:10) 4.72 (15:50) -- 0 -- -- 0
28-05-2019 18 (15:30) 5.5 (00:00) 11.8 9.44 (11:20) 5.56 (11:30) 0 0 0 0 0
27-05-2019 19.2 (15:20) 8.3 (00:00) 13.8 8.06 (17:10) 4.17 (17:10) 0 0 0 0 0
26-05-2019 23.4 (16:30) 6.7 (00:00) 15 8.06 (14:30) 4.44 (14:50) 0 0 0 0 0
25-05-2019 19.9 (16:10) 7.3 (00:00) 13.6 9.44 (13:40) 4.72 (10:10) 0 0 0 0 0
24-05-2019 16 (15:30) 6.5 (00:00) 11.3 9.44 (13:30) 4.44 (13:30) 0 0 0 0 0
23-05-2019 18.4 (16:50) 8.2 (00:00) 13.3 10 (18:50) 6.11 (15:00) 0 0 0 0 0
22-05-2019 24.2 (17:00) 8.9 (00:00) 16.6 10.28 (17:50) 6.39 (17:40) 0 0 0 0 0

Gráficas

Temp. máximas Temp. mínimas Temp. medias Precipitaciones Rachas de viento máximas Velocidades máximas media en intervalos de 10 minutos

Datos horarios

Fecha y hora oficial Temperatura (ºC) Velocidad del viento (km/h) Dirección del viento Racha (km/h) Dirección de racha Precipitación (mm) Presión (hPa) Tendencia (hPa) Humedad (%)
2019-06-20 23:00:00 11 10 Nordeste 21 Nordeste 0 -- -- 94
2019-06-20 22:00:00 11.4 9 Norte 18 Nordeste 0 -- -- 93
2019-06-20 21:00:00 12.1 4 Nordeste 14 Nordeste 0 -- -- 91
2019-06-20 20:00:00 12.6 8 Nordeste 14 Este 0 -- -- 91
2019-06-20 19:00:00 12.3 4 Nordeste 17 Nordeste 0 -- -- 92
2019-06-20 18:00:00 12.8 4 Norte 25 Norte 0 -- -- 90
2019-06-20 17:00:00 13.9 7 Nordeste 20 Nordeste 0 -- -- 86
2019-06-20 16:00:00 14.8 9 Nordeste 22 Nordeste 0 -- -- 83
2019-06-20 15:00:00 16.8 9 Nordeste 23 Nordeste 0 -- -- 80
2019-06-20 14:00:00 15.6 7 Nordeste 19 Nordeste 0 -- -- 82
2019-06-20 13:00:00 15 10 Este 21 Este 0 -- -- 86
2019-06-20 12:00:00 15.1 9 Nordeste 21 Nordeste 0 -- -- 85
2019-06-20 11:00:00 13.8 6 Nordeste 12 Nordeste 0 -- -- 95
2019-06-20 10:00:00 13.1 6 Nordeste 13 Nordeste 0 -- -- 97
2019-06-20 09:00:00 12.2 6 Nordeste 14 Nordeste 0 -- -- 98
2019-06-20 08:00:00 11.5 0 Calma 3 Norte 0 -- -- 98
2019-06-20 07:00:00 11 0 Calma 12 Norte 0 -- -- 97
2019-06-20 06:00:00 11.2 8 Norte 12 Norte 0 -- -- 97
2019-06-20 05:00:00 11.4 8 Norte 14 Norte 0 -- -- 97
2019-06-20 04:00:00 11.6 5 Noroeste 14 Norte 0 -- -- 97
2019-06-20 03:00:00 11.8 3 Noroeste 5 Noroeste 0.2 -- -- 96
2019-06-20 02:00:00 12 3 Oeste 9 Oeste 1.2 -- -- 96
2019-06-20 01:00:00 12.2 5 Norte 17 Norte 0.4 -- -- 94
2019-06-20 00:00:00 12.7 0 Calma 8 Oeste 0 -- -- 94
2019-06-19 23:00:00 12.8 5 Oeste 21 Oeste 0 -- -- 92
2019-06-19 22:00:00 13.8 16 Oeste 23 Oeste 0 -- -- 86
2019-06-19 21:00:00 15.3 5 Sudoeste 23 Sudoeste 0 -- -- 79
2019-06-19 20:00:00 15.7 14 Sudoeste 24 Oeste 0 -- -- 76
2019-06-19 19:00:00 15.5 4 Sudoeste 33 Oeste 0 -- -- 79
2019-06-19 18:00:00 15.6 17 Oeste 34 Oeste 0 -- -- 77
2019-06-19 17:00:00 16.4 15 Sudoeste 37 Oeste 0 -- -- 72
2019-06-19 16:00:00 16.8 14 Sudoeste 34 Sudoeste 0 -- -- 70
2019-06-19 15:00:00 16.7 24 Oeste -- -- -- -- -- 71
2019-06-19 14:00:00 -- -- -- -- -- -- -- -- --
2019-06-19 13:00:00 14.9 13 Sudoeste 27 Sudoeste 0 -- -- 79
2019-06-19 12:00:00 13.4 18 Sudoeste 36 Sudoeste 0 -- -- 85
2019-06-19 11:00:00 13 16 Sudoeste 37 Sudoeste 0 -- -- 88
2019-06-19 10:00:00 12.5 26 Sudoeste 42 Sudoeste 0 -- -- 91
2019-06-19 09:00:00 12.4 15 Oeste 28 Oeste 0.2 -- -- 95
2019-06-19 08:00:00 12.4 13 Sudoeste 22 Sudoeste 0.2 -- -- 95
2019-06-19 07:00:00 12.7 19 Sudoeste 31 Oeste 0 -- -- 92
2019-06-19 06:00:00 13 19 Sudoeste 32 Sudoeste 0 -- -- 91
2019-06-19 05:00:00 13.2 11 Sudoeste 19 Oeste 0 -- -- 89
2019-06-19 04:00:00 13.2 11 Sudoeste 25 Oeste 0 -- -- 89
2019-06-19 03:00:00 13.3 17 Sudoeste 25 Sudoeste 0 -- -- 89
2019-06-19 02:00:00 13.4 14 Sudoeste 33 Sudoeste 0 -- -- 89
2019-06-19 01:00:00 13.7 21 Sudoeste 32 Sudoeste 0 -- -- 88
2019-06-19 00:00:00 13.9 8 Sudoeste 15 Sudoeste 0 -- -- 89
2019-06-18 23:00:00 14 11 Sudoeste 41 Oeste 0 -- -- 89
2019-06-18 22:00:00 14.3 18 Sudoeste 42 Oeste 0 -- -- 90
2019-06-18 21:00:00 14.5 18 Sudoeste 37 Oeste 2 -- -- 91
2019-06-18 20:00:00 14.4 22 Sudoeste 37 Oeste 1 -- -- 92
2019-06-18 19:00:00 15.1 22 Sudoeste 45 Sudoeste 0.2 -- -- 84
2019-06-18 18:00:00 17.7 18 Sudoeste 41 Sur 0 -- -- 64
2019-06-18 17:00:00 19.6 33 Sur 50 Sur 0 -- -- 53
2019-06-18 16:00:00 20.2 24 Sudoeste 69 Sudoeste 0 -- -- 52
2019-06-18 15:00:00 19.7 33 Sudoeste 66 Sur 0 -- -- 55
2019-06-18 14:00:00 19.1 24 Sur 51 Sur 0 -- -- 61
2019-06-18 13:00:00 16.7 7 Sudeste 21 Oeste 0 -- -- 69
2019-06-18 12:00:00 16.7 8 Este 28 Sudoeste 0 -- -- 66
2019-06-18 11:00:00 14.6 16 Sudoeste 24 Sudoeste 0 -- -- 71
2019-06-18 10:00:00 13.8 15 Sudoeste 22 Sudoeste 0 -- -- 74
2019-06-18 09:00:00 13.3 15 Noroeste 21 Noroeste 0 -- -- 83
2019-06-18 08:00:00 12.8 4 Noroeste 9 Noroeste 0 -- -- 90
2019-06-18 07:00:00 12.2 2 Este 6 Este 0 -- -- 90
2019-06-18 06:00:00 12.6 0 Calma 6 Este 0 -- -- 93
2019-06-18 05:00:00 12.7 5 Este 8 Este 0 -- -- 94
2019-06-18 04:00:00 13.6 3 Este 7 Este 0 -- -- 93
2019-06-18 03:00:00 14.9 4 Noroeste 8 Noroeste 0 -- -- 65
2019-06-18 02:00:00 16.3 3 Nordeste 9 Sudeste 0 -- -- 70
2019-06-18 01:00:00 17.5 3 Sur 12 Sur 0 -- -- 48
2019-06-18 00:00:00 17.2 4 Sudoeste 28 Sudoeste 0 -- -- 72
2019-06-17 23:00:00 17.4 8 Sur 22 Sur 0 -- -- 51
2019-06-17 22:00:00 18.3 0 Calma 9 Oeste 0 -- -- 66
2019-06-17 21:00:00 19.3 4 Sudoeste 10 Oeste 0 -- -- 62
2019-06-17 20:00:00 19.6 6 Noroeste 24 Oeste 0 -- -- 61
2019-06-17 19:00:00 20.1 3 Nordeste 10 Nordeste 0 -- -- 58
2019-06-17 18:00:00 20.4 6 Sur 16 Oeste 0 -- -- 55
2019-06-17 17:00:00 20.2 9 Oeste 21 Oeste 0 -- -- 62
2019-06-17 16:00:00 21.6 7 Noroeste 18 Noroeste 0 -- -- 63
2019-06-17 15:00:00 21.1 11 Noroeste 17 Noroeste 0 -- -- 66
2019-06-17 14:00:00 19.9 6 Sudeste 19 Oeste 0 -- -- 69
2019-06-17 13:00:00 16.9 7 Este 15 Este 0 -- -- 82
2019-06-17 12:00:00 13.6 5 Nordeste 9 Este 0 -- -- 97
2019-06-17 11:00:00 11.6 4 Este 7 Este 0 -- -- 99
2019-06-17 10:00:00 10.9 4 Este 6 Este 0 -- -- 99
2019-06-17 09:00:00 10.5 3 Noroeste 8 Noroeste 0 -- -- 99
2019-06-17 08:00:00 10.1 0 Calma 5 Oeste 0 -- -- 99
2019-06-17 07:00:00 10.2 0 Calma 5 Oeste 0 -- -- 99
2019-06-17 06:00:00 10.7 0 Calma 6 Este 0 -- -- 98
2019-06-17 05:00:00 10.8 3 Este 8 Este 0 -- -- 98
2019-06-17 04:00:00 10.7 6 Este 8 Este 0 -- -- 98
2019-06-17 03:00:00 10.6 5 Este 7 Este 0 -- -- 97
2019-06-17 02:00:00 11.2 6 Nordeste 8 Este 0 -- -- 95
2019-06-17 01:00:00 12 5 Este 7 Este 0 -- -- 91
2019-06-17 00:00:00 13.3 5 Sudeste 8 Norte 0 -- -- 85
2019-06-16 23:00:00 14.5 8 Norte 13 Norte 0 -- -- 78
2019-06-16 22:00:00 16.3 9 Norte 18 Norte 0 -- -- 73
2019-06-16 21:00:00 18.9 5 Nordeste 18 Norte 0 -- -- 68
2019-06-16 20:00:00 20.4 8 Norte 17 Noroeste 0 -- -- 61
2019-06-16 19:00:00 21.3 9 Norte 23 Noroeste 0 -- -- 59
2019-06-16 18:00:00 21.7 10 Nordeste 24 Norte 0 -- -- 57
2019-06-16 17:00:00 22.1 8 Norte 26 Oeste 0 -- -- 56
2019-06-16 16:00:00 23.3 9 Oeste 24 Noroeste 0 -- -- 43
2019-06-16 15:00:00 22.5 9 Oeste 29 Noroeste 0 -- -- 45
2019-06-16 14:00:00 21.4 7 Oeste 39 Oeste 0 -- -- 45
2019-06-16 13:00:00 19.2 9 Este 21 Este 0 -- -- 54
2019-06-16 12:00:00 16.2 10 Este 16 Este 0 -- -- 70
2019-06-16 11:00:00 14 7 Este 13 Este 0 -- -- 78
2019-06-16 10:00:00 11.6 3 Nordeste 13 Nordeste 0 -- -- 89
2019-06-16 09:00:00 10.1 5 Nordeste 9 Nordeste 0 -- -- 96
2019-06-16 08:00:00 8.7 3 Este 8 Nordeste 0 -- -- 97
2019-06-16 07:00:00 9.1 3 Este 13 Este 0 -- -- 96
2019-06-16 06:00:00 9.4 3 Nordeste 6 Este 0 -- -- 95
2019-06-16 05:00:00 9.6 0 Calma 4 Este 0 -- -- 95
2019-06-16 04:00:00 9.6 4 Nordeste 4 Nordeste 0 -- -- 95
2019-06-16 03:00:00 9.5 3 Este 5 Este 0 -- -- 95
2019-06-16 02:00:00 9.7 4 Este 5 Este 0 -- -- 93
2019-06-16 01:00:00 10.5 4 Este 6 Norte 0 -- -- 89
2019-06-16 00:00:00 10.5 0 Calma 10 Noroeste 0 -- -- 87
2019-06-15 23:00:00 11 5 Oeste 14 Norte 0 -- -- 83
2019-06-15 22:00:00 12.9 8 Norte 15 Norte 0 -- -- 73
2019-06-15 21:00:00 15.1 11 Oeste 24 Oeste 0 -- -- 62
2019-06-15 20:00:00 17 15 Oeste 24 Oeste 0 -- -- 54
2019-06-15 19:00:00 17.3 13 Oeste 24 Oeste 0 -- -- 50
2019-06-15 18:00:00 18.4 12 Noroeste 26 Oeste 0 -- -- 49
2019-06-15 17:00:00 17.6 13 Sudoeste 32 Oeste 0 -- -- 50
2019-06-15 16:00:00 17.7 15 Oeste 35 Sudoeste 0 -- -- 50
2019-06-15 15:00:00 16.8 12 Oeste 41 Oeste 0 -- -- 52
2019-06-15 14:00:00 14.7 15 Sudoeste 34 Sudoeste 0 -- -- 58
2019-06-15 13:00:00 13.6 18 Sudoeste 30 Sudoeste 0 -- -- 58
2019-06-15 12:00:00 11.9 13 Sudoeste 31 Oeste 0 -- -- 69
2019-06-15 11:00:00 11.8 18 Sudoeste 29 Sudoeste 0 -- -- 71
2019-06-15 10:00:00 9.9 16 Sudoeste 28 Sudoeste 0 -- -- 83
2019-06-15 09:00:00 9 16 Sudoeste 22 Sudoeste 0 -- -- 89
2019-06-15 08:00:00 8.7 14 Sudoeste 27 Sudoeste 0 -- -- 91
2019-06-15 07:00:00 8.7 14 Sudoeste 28 Oeste 0 -- -- 91
2019-06-15 06:00:00 8.8 9 Sudoeste 17 Sudoeste 0 -- -- 86
2019-06-15 05:00:00 8.4 6 Oeste 22 Sudoeste 0 -- -- 88
2019-06-15 04:00:00 8.9 12 Sudoeste 22 Oeste 0 -- -- 89
2019-06-15 03:00:00 8.6 16 Sudoeste 22 Sudoeste 0 -- -- 90
2019-06-15 02:00:00 8.7 12 Sudoeste 17 Oeste 0 -- -- 91
2019-06-15 01:00:00 9 6 Oeste 12 Oeste 0 -- -- 90
2019-06-15 00:00:00 9.5 3 Oeste 10 Noroeste 0 -- -- 90
2019-06-14 23:00:00 9.7 8 Oeste 20 Oeste 0.2 -- -- 88
2019-06-14 22:00:00 10.6 12 Noroeste 27 Oeste 0 -- -- 84
2019-06-14 21:00:00 12.9 12 Oeste 23 Oeste 0 -- -- 71
2019-06-14 20:00:00 13.6 12 Noroeste 27 Norte 0 -- -- 64
2019-06-14 19:00:00 14 14 Noroeste 28 Noroeste 0 -- -- 59
2019-06-14 18:00:00 14.9 6 Nordeste 19 Oeste 0 -- -- 61
2019-06-14 17:00:00 16.5 15 Oeste 25 Noroeste 0 -- -- 49
2019-06-14 16:00:00 16.1 8 Noroeste 25 Oeste 0 -- -- 52
2019-06-14 15:00:00 15.5 16 Oeste 31 Noroeste 0 -- -- 56
2019-06-14 14:00:00 16.1 10 Oeste 24 Oeste 0 -- -- 52
2019-06-14 13:00:00 15.3 5 Oeste 23 Norte 0 -- -- 59
2019-06-14 12:00:00 13 3 Nordeste 19 Noroeste 0 -- -- 73
2019-06-14 11:00:00 10 2 Sudeste 9 Noroeste 0 -- -- 93
2019-06-14 10:00:00 7.6 4 Noroeste 12 Oeste 0 -- -- 99
2019-06-14 09:00:00 6.5 10 Noroeste 13 Oeste 0 -- -- 99
2019-06-14 08:00:00 5.4 5 Oeste 11 Noroeste 0 -- -- 99
2019-06-14 07:00:00 5.2 0 Calma 9 Sudeste 0 -- -- 97
2019-06-14 06:00:00 5.7 0 Calma 8 Este 0 -- -- 97
2019-06-14 05:00:00 6.4 6 Este 8 Este 0 -- -- 97
2019-06-14 04:00:00 6.9 4 Nordeste 7 Sudeste 0 -- -- 95
2019-06-14 03:00:00 7.5 4 Este 7 Este 0 -- -- 94
2019-06-14 02:00:00 8.4 2 Este 6 Este 0 -- -- 89
2019-06-14 01:00:00 8.7 0 Calma 10 Norte 0 -- -- 88
2019-06-14 00:00:00 8.3 5 Norte 12 Norte 0 -- -- 89
2019-06-13 23:00:00 9.1 8 Norte 13 Nordeste 0 -- -- 86
2019-06-13 22:00:00 10.6 5 Norte 14 Norte 0 -- -- 80
2019-06-13 21:00:00 11.5 6 Norte 17 Norte 0 -- -- 76
2019-06-13 20:00:00 12.4 8 Norte 19 Norte 0 -- -- 70
2019-06-13 19:00:00 15.4 8 Norte 19 Norte 0 -- -- 61
2019-06-13 18:00:00 14.6 9 Nordeste 17 Norte 0 -- -- 65
2019-06-13 17:00:00 14.4 5 Nordeste 21 Nordeste 0 -- -- 64
2019-06-13 16:00:00 13.8 7 Nordeste 22 Nordeste 0 -- -- 61
2019-06-13 15:00:00 13.7 7 Nordeste 26 Noroeste 0 -- -- 63
2019-06-13 14:00:00 13.3 4 Nordeste 13 Este 0 -- -- 64
2019-06-13 13:00:00 12.5 4 Noroeste 15 Noroeste 0 -- -- 65
2019-06-13 12:00:00 11 12 Oeste 21 Oeste 0 -- -- 72
2019-06-13 11:00:00 9.7 9 Noroeste 13 Noroeste 0 -- -- 80
2019-06-13 10:00:00 9.4 7 Noroeste 11 Noroeste 0 -- -- 84
2019-06-13 09:00:00 7.7 4 Norte 8 Noroeste 0 -- -- 95
2019-06-13 08:00:00 7.6 2 Este 6 Este 0 -- -- 93
2019-06-13 07:00:00 6.9 4 Este 9 Sudeste 0 -- -- 94
2019-06-13 06:00:00 6.5 0 Calma 8 Noroeste 0 -- -- 95
2019-06-13 05:00:00 6.9 3 Noroeste 6 Norte 0 -- -- 92
2019-06-13 04:00:00 7.3 5 Norte 10 Nordeste 0 -- -- 93
2019-06-13 03:00:00 7.1 6 Nordeste 11 Este 0 -- -- 90
2019-06-13 02:00:00 7.7 7 Nordeste 11 Nordeste 0 -- -- 88
2019-06-13 01:00:00 8.4 7 Nordeste 11 Nordeste 0 -- -- 86
2019-06-13 00:00:00 8.7 5 Nordeste 10 Nordeste 0 -- -- 85
2019-06-12 23:00:00 8.9 5 Norte 11 Nordeste 0 -- -- 84
2019-06-12 22:00:00 9.6 0 Calma 20 Noroeste 0 -- -- 81
2019-06-12 21:00:00 10.8 7 Norte 24 Noroeste 0 -- -- 74
2019-06-12 20:00:00 12.4 9 Norte 24 Norte 0 -- -- 68
2019-06-12 19:00:00 13.8 10 Norte 24 Noroeste 0 -- -- 63
2019-06-12 18:00:00 14.5 6 Noroeste 22 Oeste 0 -- -- 49
2019-06-12 17:00:00 14 7 Noroeste 14 Noroeste 0 -- -- 49
2019-06-12 16:00:00 13.6 5 Oeste 19 Oeste 0 -- -- 48
2019-06-12 15:00:00 13 14 Oeste 22 Oeste 0 -- -- 54
2019-06-12 14:00:00 13 8 Noroeste 17 Oeste 0 -- -- 57
2019-06-12 13:00:00 12.2 8 Este 20 Este 0 -- -- 62
2019-06-12 12:00:00 10.4 5 Sudeste 17 Este 0 -- -- 70
2019-06-12 11:00:00 9.8 4 Este 13 Nordeste 0 -- -- 74
2019-06-12 10:00:00 8.1 7 Sudoeste 17 Oeste 0 -- -- 79
2019-06-12 09:00:00 7.9 3 Sudoeste 8 Noroeste 0 -- -- 84
2019-06-12 08:00:00 6.4 0 Calma 8 Sudoeste 0 -- -- 91
2019-06-12 07:00:00 5.8 4 Oeste 9 Sudoeste 0 -- -- 92
2019-06-12 06:00:00 5.9 8 Oeste 18 Sudoeste 0 -- -- 91
2019-06-12 05:00:00 5.9 0 Calma 9 Sudoeste 0 -- -- 90
2019-06-12 04:00:00 5.8 8 Oeste 11 Oeste 0 -- -- 90
2019-06-12 03:00:00 5.8 5 Sudoeste 6 Sudoeste 0 -- -- 89
2019-06-12 02:00:00 5.7 4 Noroeste 12 Oeste 0 -- -- 92
2019-06-12 01:00:00 6.5 10 Noroeste 15 Noroeste 0 -- -- 89
2019-06-12 00:00:00 6.9 8 Noroeste 13 Norte 0 -- -- 85
2019-06-11 23:00:00 6.9 4 Noroeste 19 Norte 0 -- -- 88
2019-06-11 22:00:00 8.4 9 Norte 15 Norte 0 -- -- 82
2019-06-11 21:00:00 9.8 5 Noroeste 15 Nordeste 0 -- -- 76
2019-06-11 20:00:00 10.8 6 Norte 20 Nordeste 0 -- -- 72
2019-06-11 19:00:00 11.4 9 Nordeste 20 Nordeste 0 -- -- 70
2019-06-11 18:00:00 12 8 Nordeste 24 Nordeste 0 -- -- 69
2019-06-11 17:00:00 12.2 8 Norte 26 Noroeste 0 -- -- 67
2019-06-11 16:00:00 12.1 10 Nordeste 22 Nordeste 0 -- -- 63
2019-06-11 15:00:00 11.5 9 Nordeste 31 Nordeste 0 -- -- 73
2019-06-11 14:00:00 11.9 12 Nordeste 28 Nordeste 0 -- -- 72
2019-06-11 13:00:00 10.2 10 Norte 24 Nordeste 0.2 -- -- 78
2019-06-11 12:00:00 9.7 6 Norte 22 Este 0 -- -- 76
2019-06-11 11:00:00 10 12 Nordeste 23 Nordeste 0 -- -- 84
2019-06-11 10:00:00 8.3 8 Nordeste 20 Nordeste 0 -- -- 91
2019-06-11 09:00:00 8 8 Nordeste 17 Nordeste 0 -- -- 85
2019-06-11 08:00:00 7 3 Norte 12 Noroeste 0 -- -- 93
2019-06-11 07:00:00 6.1 6 Nordeste 17 Este 0.2 -- -- 96
2019-06-11 06:00:00 6.6 8 Norte 21 Noroeste 1 -- -- 96
2019-06-11 05:00:00 6.7 4 Noroeste 8 Oeste 0 -- -- 96
2019-06-11 04:00:00 6.5 9 Oeste 15 Oeste 0.8 -- -- 96
2019-06-11 03:00:00 7.1 9 Oeste 12 Oeste 0 -- -- 90
2019-06-11 02:00:00 7.5 4 Noroeste 7 Oeste 0 -- -- 87
2019-06-11 01:00:00 7.5 3 Oeste 13 Noroeste 0 -- -- 85
2019-06-11 00:00:00 7.8 3 Noroeste 14 Noroeste 0 -- -- 83
2019-06-10 23:00:00 7.9 4 Norte 19 Norte 0 -- -- 84
2019-06-10 22:00:00 8.4 9 Nordeste 23 Nordeste 0 -- -- 82
2019-06-10 21:00:00 9.7 10 Norte 20 Norte 0 -- -- 79
2019-06-10 20:00:00 11.6 8 Norte 19 Norte 0 -- -- 76
2019-06-10 19:00:00 13.3 7 Norte 21 Nordeste 0 -- -- 70
2019-06-10 18:00:00 14.5 8 Norte 22 Sudoeste 0 -- -- 62
2019-06-10 17:00:00 15.7 8 Noroeste 29 Oeste 0 -- -- 50
2019-06-10 16:00:00 16 11 Oeste 29 Norte 0 -- -- 51
2019-06-10 15:00:00 15.1 10 Oeste 22 Oeste 0 -- -- 51
2019-06-10 14:00:00 14.1 10 Noroeste 22 Oeste 0 -- -- 56
2019-06-10 13:00:00 13.6 8 Noroeste 18 Noroeste 0 -- -- 55
2019-06-10 12:00:00 12.2 6 Noroeste 18 Nordeste 0 -- -- 72
2019-06-10 11:00:00 10.7 2 Oeste 9 Oeste 0 -- -- 78
2019-06-10 10:00:00 10.2 2 Este 9 Este 0 -- -- 87
2019-06-10 09:00:00 7.9 4 Oeste 8 Noroeste 0 -- -- 98
2019-06-10 08:00:00 7.3 0 Calma 2 Este 0 -- -- 98
2019-06-10 07:00:00 7.2 0 Calma 3 Sudeste 0 -- -- 98
2019-06-10 06:00:00 7.2 0 Calma 5 Sudeste 0 -- -- 98
2019-06-10 05:00:00 6.9 0 Calma 10 Noroeste 0 -- -- 98
2019-06-10 04:00:00 6.8 7 Noroeste 9 Noroeste 0 -- -- 96
2019-06-10 03:00:00 8.1 3 Este 6 Este 0 -- -- 96
2019-06-10 02:00:00 8.1 2 Este 4 Este 0 -- -- 96
2019-06-10 01:00:00 8 0 Calma 8 Noroeste 0 -- -- 94
2019-06-10 00:00:00 8.1 9 Noroeste 11 Oeste 0 -- -- 94
2019-06-09 23:00:00 9.2 0 Calma 9 Norte 0 -- -- 90
2019-06-09 22:00:00 9.8 7 Norte 11 Este 0 -- -- 87
2019-06-09 21:00:00 11.2 5 Norte 15 Norte 0 -- -- 82
2019-06-09 20:00:00 11.1 9 Noroeste 20 Noroeste 0 -- -- 81
2019-06-09 19:00:00 12.7 9 Norte 20 Norte 0 -- -- 74
2019-06-09 18:00:00 13.9 9 Nordeste 22 Nordeste 0 -- -- 72
2019-06-09 17:00:00 14.7 8 Nordeste 26 Nordeste 0 -- -- 72
2019-06-09 16:00:00 14 6 Este 21 Noroeste 0 -- -- 73
2019-06-09 15:00:00 13.2 8 Norte 23 Nordeste 0 -- -- 73
2019-06-09 14:00:00 14.7 8 Norte 19 Oeste 0 -- -- 68
2019-06-09 13:00:00 14.5 5 Oeste 18 Oeste 0 -- -- 58
2019-06-09 12:00:00 12.3 4 Sudoeste 13 Oeste 0 -- -- 71
2019-06-09 11:00:00 10.9 4 Oeste 13 Oeste 0 -- -- 81
2019-06-09 10:00:00 9.8 3 Norte 10 Noroeste 0 -- -- 91
2019-06-09 09:00:00 9 4 Este 8 Sudeste 0 -- -- 95
2019-06-09 08:00:00 8.2 0 Calma 4 Este 0 -- -- 97
2019-06-09 07:00:00 7.8 2 Nordeste 5 Nordeste 0 -- -- 97
2019-06-09 06:00:00 7.7 0 Calma 7 Noroeste 0 -- -- 97
2019-06-09 05:00:00 7.7 0 Calma 8 Noroeste 0 -- -- 97
2019-06-09 04:00:00 7.2 6 Norte 9 Norte 0 -- -- 96
2019-06-09 03:00:00 7.5 4 Norte 10 Noroeste 0 -- -- 96
2019-06-09 02:00:00 7.9 5 Nordeste 7 Nordeste 0 -- -- 94
2019-06-09 01:00:00 8 4 Este 8 Norte 0 -- -- 94
2019-06-09 00:00:00 8.1 5 Nordeste 10 Nordeste 0 -- -- 93
2019-06-08 23:00:00 8.6 7 Nordeste 12 Nordeste 0 -- -- 90
2019-06-08 22:00:00 9.7 9 Nordeste 17 Nordeste 0 -- -- 87
2019-06-08 21:00:00 10.2 6 Nordeste 22 Nordeste 0 -- -- 86
2019-06-08 20:00:00 10.6 12 Nordeste 28 Nordeste 0 -- -- 84
2019-06-08 19:00:00 11.5 12 Nordeste 23 Nordeste 0 -- -- 78
2019-06-08 18:00:00 12.5 8 Nordeste 23 Nordeste 0 -- -- 73
2019-06-08 17:00:00 14.6 7 Nordeste 21 Este 0 -- -- 67
2019-06-08 16:00:00 15.7 12 Nordeste 22 Norte 0 -- -- 61
2019-06-08 15:00:00 14.4 8 Sudeste 18 Este 0 -- -- 63
2019-06-08 14:00:00 14.2 3 Sur 18 Sudeste 0 -- -- 65
2019-06-08 13:00:00 13 6 Sudeste 17 Este 0 -- -- 74
2019-06-08 12:00:00 11.3 6 Este 11 Este 0 -- -- 84
2019-06-08 11:00:00 9.7 5 Nordeste 9 Nordeste 0 -- -- 91
2019-06-08 10:00:00 7.8 0 Calma 10 Sudeste 0 -- -- 95
2019-06-08 09:00:00 5.5 3 Sudeste 8 Sudeste 0 -- -- 96
2019-06-08 08:00:00 5.1 3 Este 10 Sudeste 0 -- -- 94
2019-06-08 07:00:00 4.6 0 Calma 10 Sudeste 0 -- -- 93
2019-06-08 06:00:00 5.1 6 Este 9 Sudeste 0 -- -- 96
2019-06-08 05:00:00 4.8 0 Calma 7 Este 0 -- -- 95
2019-06-08 04:00:00 5.5 2 Este 7 Este 0 -- -- 94
2019-06-08 03:00:00 5.9 3 Sudeste 5 Este 0 -- -- 94
2019-06-08 02:00:00 6.2 3 Oeste 6 Oeste 0 -- -- 93
2019-06-08 01:00:00 7 3 Oeste 5 Oeste 0 -- -- 88
2019-06-08 00:00:00 7.2 2 Oeste 6 Oeste 0 -- -- 92
2019-06-07 23:00:00 7.7 2 Oeste 10 Sudeste 0 -- -- 88
2019-06-07 22:00:00 7.7 7 Sudeste 12 Sudeste 0 -- -- 90
2019-06-07 21:00:00 8.4 4 Este 10 Sudoeste 0 -- -- 91
2019-06-07 20:00:00 7.7 9 Oeste 26 Oeste 3.4 -- -- 92
2019-06-07 19:00:00 10 12 Sudoeste 40 Oeste 0.8 -- -- 81
2019-06-07 18:00:00 9.4 7 Este 17 Sudeste 0 -- -- 85
2019-06-07 17:00:00 8.5 8 Este 40 Oeste 3.8 -- -- 89
2019-06-07 16:00:00 9.8 12 Sudoeste 34 Sudoeste 0.2 -- -- 78
2019-06-07 15:00:00 8.6 24 Sudoeste 34 Oeste 0 -- -- 80
2019-06-07 14:00:00 8.9 12 Oeste 49 Oeste 0.8 -- -- 84
2019-06-07 13:00:00 8.3 24 Oeste 44 Sudoeste 0.2 -- -- 82
2019-06-07 12:00:00 9.3 26 Sudoeste 44 Sudoeste 0 -- -- 77
2019-06-07 11:00:00 8.2 12 Sudoeste 43 Oeste 0 -- -- 83
2019-06-07 10:00:00 6.4 19 Oeste 43 Sudoeste 0.4 -- -- 91
2019-06-07 09:00:00 5.8 22 Sudoeste 43 Sudoeste 0 -- -- 89
2019-06-07 08:00:00 5.4 24 Sudoeste 48 Sudoeste 0.2 -- -- 92
2019-06-07 07:00:00 5.3 32 Sudoeste 52 Sudoeste 0.6 -- -- 92
2019-06-07 06:00:00 5.5 38 Sudoeste 57 Oeste 0 -- -- 91
2019-06-07 05:00:00 5.4 37 Oeste 63 Sudoeste 0 -- -- 91
2019-06-07 04:00:00 5.4 35 Sudoeste 62 Oeste 0 -- -- 92
2019-06-07 03:00:00 4.7 36 Sudoeste 71 Oeste 1.2 -- -- 93
2019-06-07 02:00:00 5 30 Oeste 67 Oeste 0.4 -- -- 91
2019-06-07 01:00:00 6.1 27 Sudoeste 58 Sudoeste 0.2 -- -- 93
2019-06-07 00:00:00 6.4 27 Oeste 51 Oeste 0 -- -- 90
2019-06-06 23:00:00 6.8 21 Oeste 66 Sudoeste 2.4 -- -- 92
2019-06-06 22:00:00 8.3 43 Sudoeste 69 Sudoeste 0.2 -- -- 83
2019-06-06 21:00:00 9.5 40 Sudoeste 75 Oeste 0 -- -- 78
2019-06-06 20:00:00 10.8 44 Sudoeste 77 Sudoeste 0 -- -- 70
2019-06-06 19:00:00 10.5 31 Sudoeste 63 Sur 2.8 -- -- 88
2019-06-06 18:00:00 11.7 31 Sur 61 Sur 0.2 -- -- 75
2019-06-06 17:00:00 11 21 Sur 42 Sudeste 0.4 -- -- 77
2019-06-06 16:00:00 11.3 24 Sur 61 Sur 0.2 -- -- 71
2019-06-06 15:00:00 12.5 28 Sudoeste 45 Sur 0 -- -- 61
2019-06-06 14:00:00 13.3 21 Sudeste 44 Sur 0 -- -- 56
2019-06-06 13:00:00 12.2 19 Sur 36 Sur 0 -- -- 61
2019-06-06 12:00:00 12.1 22 Sur 37 Sur 0 -- -- 59
2019-06-06 11:00:00 11 12 Sudeste 22 Este 0 -- -- 69
2019-06-06 10:00:00 9.7 9 Sudeste 21 Sur 0 -- -- 70
2019-06-06 09:00:00 8.1 10 Sudeste 15 Sudeste 0 -- -- 73
2019-06-06 08:00:00 7.7 7 Sudeste 15 Sudeste 0 -- -- 76
2019-06-06 07:00:00 6.9 10 Sur 20 Sur 0 -- -- 77
2019-06-06 06:00:00 6.8 12 Sur 20 Sur 0 -- -- 81
2019-06-06 05:00:00 6.6 14 Sur 24 Sur 0 -- -- 81
2019-06-06 04:00:00 6.2 15 Sur 23 Sur 0 -- -- 84
2019-06-06 03:00:00 6 15 Sur 21 Sur 0 -- -- 88
2019-06-06 02:00:00 6.2 6 Sudoeste 11 Sudoeste 0 -- -- 89
2019-06-06 01:00:00 6.4 4 Sudoeste 12 Sudoeste 0 -- -- 90
2019-06-06 00:00:00 6.3 9 Oeste 14 Sudoeste 0 -- -- 90
2019-06-05 23:00:00 5.9 4 Sudoeste 6 Sudoeste 0 -- -- 90
2019-06-05 22:00:00 6.7 0 Calma 6 Sudeste 0 -- -- 88
2019-06-05 21:00:00 6.3 0 Calma 37 Oeste 1 -- -- 92
2019-06-05 20:00:00 6.9 18 Noroeste 50 Oeste 1.2 -- -- 86
2019-06-05 19:00:00 7.8 4 Sur 11 Sudoeste 0 -- -- 93
2019-06-05 18:00:00 7.6 8 Oeste 39 Oeste 0.6 -- -- 93
2019-06-05 17:00:00 8.6 6 Sudoeste 44 Oeste 1 -- -- 88
2019-06-05 16:00:00 10.3 16 Sudoeste 44 Oeste 2.6 -- -- 76
2019-06-05 15:00:00 9.6 17 Oeste 28 Oeste 0.4 -- -- 80
2019-06-05 14:00:00 8.9 15 Oeste 52 Oeste 1.2 -- -- 86
2019-06-05 13:00:00 10.5 14 Oeste 30 Oeste 0 -- -- 76
2019-06-05 12:00:00 9.3 10 Oeste 23 Oeste 0 -- -- 83
2019-06-05 11:00:00 7.8 16 Oeste 25 Sudoeste 0 -- -- 88
2019-06-05 10:00:00 7.7 20 Oeste 31 Oeste 0.2 -- -- 89
2019-06-05 09:00:00 7 18 Oeste 31 Oeste 0.2 -- -- 93
2019-06-05 08:00:00 7 17 Oeste 27 Oeste 0 -- -- 93
2019-06-05 07:00:00 6.9 18 Sudoeste 28 Oeste 0 -- -- 93
2019-06-05 06:00:00 7 15 Oeste 26 Oeste 0.4 -- -- 92
2019-06-05 05:00:00 7.3 8 Oeste 23 Oeste 0 -- -- 92
2019-06-05 04:00:00 7.1 15 Oeste 31 Oeste 0 -- -- 91
2019-06-05 03:00:00 7.5 17 Oeste 29 Oeste 0 -- -- 91
2019-06-05 02:00:00 7.7 17 Oeste 31 Sudoeste 0.2 -- -- 92
2019-06-05 01:00:00 8.3 18 Sudoeste 27 Oeste 0 -- -- 87
2019-06-05 00:00:00 8.6 12 Oeste 18 Sudoeste 0 -- -- 84
2019-06-04 23:00:00 8.7 8 Oeste 21 Oeste 0 -- -- 83
2019-06-04 22:00:00 9.4 9 Oeste 25 Noroeste 0 -- -- 78
2019-06-04 21:00:00 10.7 12 Oeste 30 Noroeste 0 -- -- 75
2019-06-04 20:00:00 11.7 15 Noroeste 34 Oeste 0 -- -- 74
2019-06-04 19:00:00 13 22 Oeste 49 Oeste 0 -- -- 68
2019-06-04 18:00:00 15.5 16 Oeste 30 Oeste 0 -- -- 56
2019-06-04 17:00:00 15.6 18 Sudoeste 36 Oeste 0 -- -- 51
2019-06-04 16:00:00 15.3 21 Oeste 37 Oeste 0 -- -- 54
2019-06-04 15:00:00 15 23 Oeste 41 Sudoeste 0 -- -- 65
2019-06-04 14:00:00 13.2 18 Oeste 31 Sudoeste 0 -- -- 79
2019-06-04 13:00:00 11.5 18 Oeste 42 Oeste 1.2 -- -- 92
2019-06-04 12:00:00 11.6 23 Oeste 41 Sudoeste 0.2 -- -- 91
2019-06-04 11:00:00 11.7 22 Sudoeste 44 Oeste 0.8 -- -- 92
2019-06-04 10:00:00 14.2 25 Sudoeste 56 Oeste 0 -- -- 73
2019-06-04 09:00:00 13.2 17 Sudoeste 36 Sur 0 -- -- 75
2019-06-04 08:00:00 12.3 16 Sur 53 Sudoeste 0 -- -- 74
2019-06-04 07:00:00 10.6 16 Sudoeste 30 Sudoeste 0 -- -- 82
2019-06-04 06:00:00 10.7 22 Sudoeste 42 Oeste 0 -- -- 85
2019-06-04 05:00:00 11.6 28 Sudoeste 42 Sudoeste 0 -- -- 83
2019-06-04 04:00:00 11.8 23 Sudoeste 32 Sudoeste 0 -- -- 87
2019-06-04 03:00:00 12.5 19 Sudoeste 35 Oeste 0 -- -- 85
2019-06-04 02:00:00 13.1 21 Sudoeste 33 Oeste 0 -- -- 85
2019-06-04 01:00:00 13.9 19 Oeste 33 Oeste 0 -- -- 83
2019-06-04 00:00:00 15 20 Oeste 27 Oeste 0 -- -- 81
2019-06-03 23:00:00 15.9 9 Oeste 17 Oeste 0 -- -- 79
2019-06-03 22:00:00 17.3 11 Oeste 30 Oeste 0 -- -- 71
2019-06-03 21:00:00 18.6 19 Sudoeste 35 Oeste 0 -- -- 65
2019-06-03 20:00:00 19.9 20 Oeste 41 Oeste 0 -- -- 61
2019-06-03 19:00:00 21 25 Oeste 42 Sudoeste 0 -- -- 58
2019-06-03 18:00:00 22.6 21 Oeste 39 Oeste 0 -- -- 53
2019-06-03 17:00:00 23.2 24 Oeste 41 Oeste 0 -- -- 54
2019-06-03 16:00:00 23.4 15 Oeste 33 Sudoeste 0 -- -- 51
2019-06-03 15:00:00 23.1 17 Oeste 30 Oeste 0 -- -- 55
2019-06-03 14:00:00 22 14 Oeste 26 Noroeste 0 -- -- 57
2019-06-03 13:00:00 21.3 8 Oeste 32 Oeste 0 -- -- 57
2019-06-03 12:00:00 20.2 12 Oeste 22 Oeste 0 -- -- 61
2019-06-03 11:00:00 18.4 6 Este 13 Este 0 -- -- 56
2019-06-03 10:00:00 16.1 0 Calma 6 Este 0 -- -- 58
2019-06-03 09:00:00 14.7 0 Calma 9 Noroeste 0 -- -- 64
2019-06-03 08:00:00 14.1 2 Nordeste 5 Nordeste 0 -- -- 67
2019-06-03 07:00:00 13.7 6 Noroeste 9 Noroeste 0 -- -- 66
2019-06-03 06:00:00 13.7 3 Este 10 Noroeste 0 -- -- 68
2019-06-03 05:00:00 14.1 6 Noroeste 9 Noroeste 0 -- -- 64
2019-06-03 04:00:00 14.5 5 Sudeste 10 Sudeste 0 -- -- 62
2019-06-03 03:00:00 14.1 3 Sudoeste 14 Oeste 0 -- -- 64
2019-06-03 02:00:00 14.2 11 Oeste 19 Oeste 0 -- -- 60
2019-06-03 01:00:00 16 0 Calma 18 Sudoeste 0 -- -- 53
2019-06-03 00:00:00 15.8 5 Sudoeste 13 Oeste 0 -- -- 54
2019-06-02 23:00:00 16.6 7 Oeste 15 Oeste 0 -- -- 54
2019-06-02 22:00:00 18.2 12 Oeste 19 Oeste 0 -- -- 52
2019-06-02 21:00:00 19.6 12 Oeste 23 Oeste 0 -- -- 49
2019-06-02 20:00:00 21.9 15 Oeste 25 Oeste 0 -- -- 34
2019-06-02 19:00:00 23.4 11 Oeste 36 Oeste 0 -- -- 34
2019-06-02 18:00:00 24.7 17 Sudoeste 36 Sudoeste 0 -- -- 31
2019-06-02 17:00:00 24.5 17 Oeste 44 Oeste 0 -- -- 35
2019-06-02 16:00:00 24.7 22 Sudoeste 48 Oeste 0 -- -- 32
2019-06-02 15:00:00 23.6 28 Sudoeste 49 Sudoeste 0 -- -- 34
2019-06-02 14:00:00 23.1 24 Sudoeste 45 Sudoeste 0 -- -- 36
2019-06-02 13:00:00 23.7 9 Sudoeste 32 Sudoeste 0 -- -- 36
2019-06-02 12:00:00 23.3 13 Oeste 35 Sudoeste 0 -- -- 34
2019-06-02 11:00:00 22.3 17 Sudoeste 29 Oeste 0 -- -- 34
2019-06-02 10:00:00 21.3 9 Sudoeste 21 Oeste 0 -- -- 35
2019-06-02 09:00:00 18.1 0 Calma 9 Sudeste 0 -- -- 59
2019-06-02 08:00:00 15.8 10 Sudeste 16 Este 0 -- -- 55
2019-06-02 07:00:00 15.2 6 Sur 13 Este 0 -- -- 62
2019-06-02 06:00:00 15.7 6 Sudeste 13 Sudeste 0 -- -- 61
2019-06-02 05:00:00 16 0 Calma 6 Sudeste 0 -- -- 61
2019-06-02 04:00:00 16.3 3 Este 6 Este 0 -- -- 64
2019-06-02 03:00:00 16.1 5 Oeste 10 Noroeste 0 -- -- 66
2019-06-02 02:00:00 18.1 2 Nordeste 6 Este 0 -- -- 59
2019-06-02 01:00:00 18.7 0 Calma 6 Nordeste 0 -- -- 56
2019-06-02 00:00:00 20 0 Calma 5 Oeste 0 -- -- 54
2019-06-01 23:00:00 19.9 0 Calma 14 Noroeste 0 -- -- 53
2019-06-01 22:00:00 21.6 0 Calma 17 Noroeste 0 -- -- 50
2019-06-01 21:00:00 25.9 17 Oeste 39 Oeste 0 -- -- 34
2019-06-01 20:00:00 28 23 Oeste 33 Sudoeste 0 -- -- 34
2019-06-01 19:00:00 29.1 20 Oeste 39 Oeste 0 -- -- 24
2019-06-01 18:00:00 29.8 22 Oeste 39 Oeste 0 -- -- 24
2019-06-01 17:00:00 29.8 22 Oeste 43 Sudoeste 0 -- -- 27
2019-06-01 16:00:00 29.2 31 Sudoeste 48 Oeste 0 -- -- 24
2019-06-01 15:00:00 29.5 28 Sudoeste 45 Sudoeste 0 -- -- 25
2019-06-01 14:00:00 29.7 15 Oeste 39 Noroeste 0 -- -- 28
2019-06-01 13:00:00 28.2 25 Sudoeste 39 Sudoeste 0 -- -- 29
2019-06-01 12:00:00 27.5 10 Sur 21 Sudoeste 0 -- -- 37
2019-06-01 11:00:00 24.9 5 Sudoeste 12 Sudeste 0 -- -- 45
2019-06-01 10:00:00 23 6 Sudeste 12 Sudeste 0 -- -- 47
2019-06-01 09:00:00 21.1 6 Sudeste 14 Este 0 -- -- 49
2019-06-01 08:00:00 18.9 2 Sur 8 Oeste 0 -- -- 50
2019-06-01 07:00:00 17.9 0 Calma 6 Sudeste 0 -- -- 50
2019-06-01 06:00:00 18.4 2 Sur 10 Sudeste 0 -- -- 48
2019-06-01 05:00:00 18.6 4 Sudeste 12 Sudeste 0 -- -- 46
2019-06-01 04:00:00 19.1 2 Sur 7 Sudoeste 0 -- -- 44
2019-06-01 03:00:00 19.9 0 Calma 8 Sur 0 -- -- 42
2019-06-01 02:00:00 20.7 4 Sur 10 Este 0 -- -- 39
2019-06-01 01:00:00 21.2 4 Sudeste 10 Sudeste 0 -- -- 38
2019-06-01 00:00:00 21.7 0 Calma 14 Norte 0 -- -- 44
2019-05-31 23:00:00 22.4 9 Norte 17 Nordeste 0 -- -- 41
2019-05-31 22:00:00 23.4 11 Nordeste 17 Nordeste 0 -- -- 41
2019-05-31 21:00:00 26.3 10 Nordeste 22 Nordeste 0 -- -- 38
2019-05-31 20:00:00 28.7 8 Nordeste 20 Nordeste 0 -- -- 36
2019-05-31 19:00:00 29.9 8 Norte 19 Norte 0 -- -- 34
2019-05-31 18:00:00 31.2 11 Noroeste 23 Noroeste 0 -- -- 27
2019-05-31 17:00:00 31.3 10 Oeste 21 Noroeste 0 -- -- 26
2019-05-31 16:00:00 31 9 Noroeste 22 Este 0 -- -- 26
2019-05-31 15:00:00 30.3 9 Oeste 20 Nordeste 0 -- -- 29
2019-05-31 14:00:00 29.5 6 Este 19 Nordeste 0 -- -- 32
2019-05-31 13:00:00 28.3 7 Oeste 20 Oeste 0 -- -- 32
2019-05-31 12:00:00 26.9 3 Este 10 Este 0 -- -- 48
2019-05-31 11:00:00 24.6 3 Este 12 Este 0 -- -- 49
2019-05-31 10:00:00 22.1 3 Sur 12 Sur 0 -- -- 50
2019-05-31 09:00:00 20.5 4 Sur 12 Sur 0 -- -- 50
2019-05-31 08:00:00 19.1 9 Sudeste 13 Sudeste 0 -- -- 51
2019-05-31 07:00:00 17.6 3 Sudoeste 21 Sudeste 0 -- -- 55
2019-05-31 06:00:00 18.2 7 Sudeste 20 Sudeste 0 -- -- 53
2019-05-31 05:00:00 18.3 14 Sudeste 21 Sudeste 0 -- -- 54
2019-05-31 04:00:00 17.4 6 Este 10 Este 0 -- -- 59
2019-05-31 03:00:00 17.8 6 Este 19 Sudeste 0 -- -- 59
2019-05-31 02:00:00 18.7 17 Sudeste 22 Sudeste 0 -- -- 57
2019-05-31 01:00:00 18.6 4 Sudeste 10 Nordeste 0 -- -- 59
2019-05-31 00:00:00 18.8 3 Este 14 Norte 0 -- -- 58
2019-05-30 23:00:00 20 11 Nordeste 26 Nordeste 0 -- -- 53
2019-05-30 22:00:00 20.8 7 Nordeste 17 Nordeste 0 -- -- 54
2019-05-30 21:00:00 24 9 Nordeste 18 Nordeste 0 -- -- 47
2019-05-30 20:00:00 26 5 Noroeste 26 Norte 0 -- -- 44
2019-05-30 19:00:00 27.1 6 Norte 20 Nordeste 0 -- -- 42
2019-05-30 18:00:00 28.8 7 Norte 21 Nordeste 0 -- -- 34
2019-05-30 17:00:00 29.5 8 Noroeste 21 Nordeste 0 -- -- 29
2019-05-30 16:00:00 29 7 Norte 20 Este 0 -- -- 30
2019-05-30 15:00:00 27.8 8 Este 18 Este 0 -- -- 34
2019-05-30 14:00:00 26.5 10 Este 17 Este 0 -- -- 38
2019-05-30 13:00:00 24.4 9 Este 14 Este 0 -- -- 44
2019-05-30 12:00:00 23.3 5 Sur 12 Oeste 0 -- -- 48
2019-05-30 11:00:00 21.1 3 Este 8 Este 0 -- -- 56
2019-05-30 10:00:00 18.7 4 Este 8 Este 0 -- -- 59
2019-05-30 09:00:00 16.4 2 Este 8 Este 0 -- -- 60
2019-05-30 08:00:00 14.2 2 Sudeste 9 Sudeste 0 -- -- 60
2019-05-30 07:00:00 12.6 0 Calma 9 Oeste 0 -- -- 67
2019-05-30 06:00:00 13 0 Calma 14 Sudeste 0 -- -- 65
2019-05-30 05:00:00 13 0 Calma 11 Sudeste 0 -- -- 69
2019-05-30 04:00:00 13.7 7 Este 12 Sudeste 0 -- -- 68
2019-05-30 03:00:00 13.3 6 Este 10 Este 0 -- -- 76
2019-05-30 02:00:00 14.1 5 Este 10 Este 0 -- -- 74
2019-05-30 01:00:00 15.1 4 Este 8 Este 0 -- -- 70
2019-05-30 00:00:00 15.3 6 Este 14 Nordeste 0 -- -- 68
2019-05-29 23:00:00 16.2 12 Nordeste 20 Norte 0 -- -- 63
2019-05-29 22:00:00 17.7 13 Nordeste 20 Norte 0 -- -- 58
2019-05-29 21:00:00 19.8 13 Nordeste 22 Nordeste 0 -- -- 53
2019-05-29 20:00:00 22.1 10 Nordeste 20 Nordeste 0 -- -- 44
2019-05-29 19:00:00 23.4 8 Nordeste 22 Nordeste 0 -- -- 43
2019-05-29 18:00:00 24 12 Nordeste 26 Este 0 -- -- 40
2019-05-29 17:00:00 24.1 10 Nordeste 26 Este 0 -- -- 40
2019-05-29 16:00:00 23.6 12 Este 27 Este 0 -- -- 42
2019-05-29 15:00:00 22.8 12 Este 26 Este 0 -- -- 41
2019-05-29 14:00:00 21.9 10 Nordeste 30 Nordeste 0 -- -- 43
2019-05-29 13:00:00 20.7 14 Nordeste 28 Nordeste -- -- -- 50
2019-05-29 12:00:00 17.8 6 Este 12 Este -- -- -- 60
2019-05-29 11:00:00 14.8 5 Este 13 Oeste 0 -- -- 65
2019-05-29 10:00:00 12.5 6 Nordeste 12 Nordeste 0 -- -- 71
2019-05-29 09:00:00 10.5 5 Sudeste 11 Sudeste 0 -- -- 77
2019-05-29 08:00:00 8.3 6 Este 11 Sudeste 0 -- -- 85
2019-05-29 07:00:00 6.1 0 Calma 13 Norte 0 -- -- 90
2019-05-29 06:00:00 6.3 8 Norte 12 Norte 0 -- -- 89
2019-05-29 05:00:00 6.7 4 Este 10 Este 0 -- -- 88
2019-05-29 04:00:00 7 0 Calma 13 Nordeste 0 -- -- 85
2019-05-29 03:00:00 7.6 5 Nordeste 15 Nordeste 0 -- -- 83
2019-05-29 02:00:00 7.6 8 Nordeste 17 Nordeste 0 -- -- 84
2019-05-29 01:00:00 7.7 5 Nordeste 11 Nordeste 0 -- -- 83
2019-05-29 00:00:00 8.3 6 Nordeste 13 Norte 0 -- -- 79
2019-05-28 23:00:00 9.2 8 Nordeste 22 Norte 0 -- -- 75
2019-05-28 22:00:00 10.6 8 Nordeste 25 Nordeste 0 -- -- 68
2019-05-28 21:00:00 12.8 13 Nordeste 28 Norte 0 -- -- 63
2019-05-28 20:00:00 14.4 12 Nordeste 26 Nordeste 0 -- -- 57
2019-05-28 19:00:00 15.9 9 Norte 23 Norte 0 -- -- 53
2019-05-28 18:00:00 16.7 6 Norte 23 Nordeste 0 -- -- 53
2019-05-28 17:00:00 17.5 6 Nordeste 24 Nordeste 0 -- -- 51
2019-05-28 16:00:00 17.8 12 Nordeste 23 Nordeste 0 -- -- 47
2019-05-28 15:00:00 17.4 12 Nordeste 26 Nordeste 0 -- -- 49
2019-05-28 14:00:00 17 8 Norte 25 Nordeste 0 -- -- 51
2019-05-28 13:00:00 15.8 8 Nordeste 27 Nordeste 0 -- -- 57
2019-05-28 12:00:00 15.1 15 Nordeste 34 Nordeste 0 -- -- 56
2019-05-28 11:00:00 12.6 13 Nordeste 23 Nordeste 0 -- -- 65
2019-05-28 10:00:00 11.3 10 Este 21 Nordeste 0 -- -- 68
2019-05-28 09:00:00 10.3 10 Nordeste 19 Nordeste 0 -- -- 77
2019-05-28 08:00:00 7.9 15 Nordeste 23 Nordeste 0 -- -- 85
2019-05-28 07:00:00 5.6 4 Nordeste 15 Nordeste 0 -- -- 93
2019-05-28 06:00:00 6 12 Nordeste 18 Nordeste 0 -- -- 93
2019-05-28 05:00:00 6.4 7 Norte 18 Norte 0 -- -- 94
2019-05-28 04:00:00 6.8 11 Norte 20 Norte 0 -- -- 93
2019-05-28 03:00:00 7.3 8 Norte 18 Nordeste 0 -- -- 89
2019-05-28 02:00:00 7.7 4 Norte 19 Nordeste 0 -- -- 88
2019-05-28 01:00:00 8 6 Norte 19 Norte 0 -- -- 87
2019-05-28 00:00:00 8.3 7 Norte 21 Norte 0 -- -- 86
2019-05-27 23:00:00 8.7 9 Norte 21 Norte 0 -- -- 86
2019-05-27 22:00:00 9.7 13 Norte 27 Norte 0 -- -- 83
2019-05-27 21:00:00 12.5 10 Norte 24 Noroeste 0 -- -- 72
2019-05-27 20:00:00 15 10 Noroeste 22 Norte 0 -- -- 64
2019-05-27 19:00:00 16.1 9 Norte 22 Norte 0 -- -- 61
2019-05-27 18:00:00 17.5 9 Norte 29 Noroeste 0 -- -- 61
2019-05-27 17:00:00 18.3 10 Norte 28 Noroeste 0 -- -- 59
2019-05-27 16:00:00 18.8 10 Norte 26 Norte 0 -- -- 58
2019-05-27 15:00:00 18.8 12 Nordeste 27 Nordeste 0 -- -- 60
2019-05-27 14:00:00 18.7 12 Nordeste 24 Noroeste 0 -- -- 60
2019-05-27 13:00:00 18 10 Nordeste 25 Nordeste 0 -- -- 67
2019-05-27 12:00:00 15.4 8 Nordeste 18 Norte 0 -- -- 79
2019-05-27 11:00:00 13.8 4 Este 11 Este 0 -- -- 83
2019-05-27 10:00:00 12 5 Oeste 9 Noroeste 0 -- -- 87
2019-05-27 09:00:00 11.2 0 Calma 6 Oeste 0 -- -- 93
2019-05-27 08:00:00 9.8 0 Calma 13 Noroeste 0 -- -- 93
2019-05-27 07:00:00 10.1 0 Calma 8 Noroeste 0 -- -- 90
2019-05-27 06:00:00 9.5 0 Calma 11 Noroeste 0 -- -- 92
2019-05-27 05:00:00 9.5 6 Noroeste 14 Noroeste 0 -- -- 91
2019-05-27 04:00:00 9.5 6 Este 8 Este 0 -- -- 92
2019-05-27 03:00:00 9.8 0 Calma 6 Este 0 -- -- 89
2019-05-27 02:00:00 10.3 0 Calma 6 Este 0 -- -- 88
2019-05-27 01:00:00 10.6 0 Calma 9 Noroeste 0 -- -- 84
2019-05-27 00:00:00 11.3 0 Calma 6 Nordeste 0 -- -- 80
2019-05-26 23:00:00 12.1 5 Nordeste 15 Norte 0 -- -- 75
2019-05-26 22:00:00 13.7 6 Oeste 13 Noroeste 0 -- -- 70
2019-05-26 21:00:00 16.3 10 Noroeste 22 Noroeste 0 -- -- 61
2019-05-26 20:00:00 18.6 6 Oeste 19 Noroeste 0 -- -- 55
2019-05-26 19:00:00 21.3 8 Norte 22 Norte 0 -- -- 48
2019-05-26 18:00:00 22 6 Nordeste 25 Norte 0 -- -- 45
2019-05-26 17:00:00 23.2 11 Norte 25 Norte 0 -- -- 39
2019-05-26 16:00:00 22.6 8 Norte 23 Nordeste 0 -- -- 43
2019-05-26 15:00:00 20.5 8 Este 29 Este 0 -- -- 54
2019-05-26 14:00:00 17.7 9 Este 22 Nordeste 0 -- -- 67
2019-05-26 13:00:00 15 10 Este 19 Este 0 -- -- 77
2019-05-26 12:00:00 12.2 6 Este 13 Nordeste 0 -- -- 86
2019-05-26 11:00:00 9.4 4 Nordeste 9 Nordeste 0 -- -- 96
2019-05-26 10:00:00 7.9 4 Este 7 Este 0 -- -- 97
2019-05-26 09:00:00 7.5 0 Calma 8 Este 0 -- -- 98
2019-05-26 08:00:00 7.2 2 Este 8 Sudeste 0 -- -- 97
2019-05-26 07:00:00 7.2 0 Calma 8 Norte 0 -- -- 97
2019-05-26 06:00:00 6.7 3 Oeste 8 Norte 0 -- -- 96
2019-05-26 05:00:00 6.9 3 Norte 7 Este 0 -- -- 95
2019-05-26 04:00:00 7.5 4 Este 6 Este 0 -- -- 94
2019-05-26 03:00:00 8 0 Calma 6 Este 0 -- -- 92
2019-05-26 02:00:00 8.3 4 Este 7 Este 0 -- -- 91
2019-05-26 01:00:00 8.9 2 Este 11 Nordeste 0 -- -- 87
2019-05-26 00:00:00 10.3 7 Nordeste 23 Nordeste 0 -- -- 78
2019-05-25 23:00:00 10.7 7 Norte 19 Norte 0 -- -- 78
2019-05-25 22:00:00 12.1 10 Norte 21 Noroeste 0 -- -- 75
2019-05-25 21:00:00 14.9 12 Norte 20 Noroeste 0 -- -- 64
2019-05-25 20:00:00 16.9 11 Norte 27 Norte 0 -- -- 58
2019-05-25 19:00:00 18 13 Norte 25 Noroeste 0 -- -- 55
2019-05-25 18:00:00 19.2 6 Nordeste 28 Nordeste 0 -- -- 54
2019-05-25 17:00:00 19.7 10 Nordeste 25 Nordeste 0 -- -- 52
2019-05-25 16:00:00 19.8 10 Nordeste 30 Nordeste 0 -- -- 52
2019-05-25 15:00:00 19.4 15 Nordeste 30 Este 0 -- -- 52
2019-05-25 14:00:00 18.9 14 Nordeste 34 Nordeste 0 -- -- 52
2019-05-25 13:00:00 17.8 9 Nordeste 25 Nordeste 0 -- -- 54
2019-05-25 12:00:00 16.3 9 Nordeste 26 Nordeste 0 -- -- 60
2019-05-25 11:00:00 14.8 13 Este 27 Nordeste 0 -- -- 59
2019-05-25 10:00:00 13.1 16 Nordeste 25 Este 0 -- -- 66
2019-05-25 09:00:00 11.3 17 Nordeste 26 Nordeste 0 -- -- 74
2019-05-25 08:00:00 8.4 7 Este 13 Norte 0 -- -- 91
2019-05-25 07:00:00 7.4 10 Norte 19 Norte 0 -- -- 93
2019-05-25 06:00:00 7.8 7 Nordeste 17 Norte 0 -- -- 92
2019-05-25 05:00:00 8.1 9 Norte 19 Norte 0 -- -- 94
2019-05-25 04:00:00 8 8 Norte 16 Norte 0 -- -- 93
2019-05-25 03:00:00 8.4 10 Nordeste 18 Norte 0 -- -- 90
2019-05-25 02:00:00 8.9 12 Norte 22 Este 0 -- -- 86
2019-05-25 01:00:00 9.9 17 Este 26 Nordeste 0 -- -- 77
2019-05-25 00:00:00 9.6 13 Nordeste 24 Nordeste 0 -- -- 82
2019-05-24 23:00:00 9.5 13 Nordeste 24 Nordeste 0 -- -- 85
2019-05-24 22:00:00 10.3 8 Nordeste 26 Nordeste 0 -- -- 81
2019-05-24 21:00:00 12.7 6 Nordeste 24 Nordeste 0 -- -- 72
2019-05-24 20:00:00 13.7 10 Nordeste 29 Nordeste 0 -- -- 69
2019-05-24 19:00:00 14.7 9 Nordeste 28 Nordeste 0 -- -- 65
2019-05-24 18:00:00 15.4 10 Nordeste 29 Nordeste 0 -- -- 61
2019-05-24 17:00:00 15.6 11 Nordeste 27 Nordeste 0 -- -- 61
2019-05-24 16:00:00 14.9 10 Nordeste 26 Nordeste 0 -- -- 63
2019-05-24 15:00:00 15.2 15 Nordeste 25 Nordeste 0 -- -- 65
2019-05-24 14:00:00 14.9 10 Nordeste 34 Este 0 -- -- 63
2019-05-24 13:00:00 15.4 15 Nordeste 31 Nordeste 0 -- -- 58
2019-05-24 12:00:00 13.7 13 Nordeste 28 Nordeste 0 -- -- 64
2019-05-24 11:00:00 11.4 10 Este 22 Nordeste 0 -- -- 72
2019-05-24 10:00:00 10.5 9 Nordeste 20 Nordeste 0 -- -- 76
2019-05-24 09:00:00 9.5 8 Nordeste 15 Nordeste 0 -- -- 84
2019-05-24 08:00:00 7.6 2 Noroeste 7 Noroeste 0 -- -- 93
2019-05-24 07:00:00 7.3 2 Noroeste 6 Norte 0 -- -- 91
2019-05-24 06:00:00 7.4 5 Norte 12 Nordeste 0 -- -- 91
2019-05-24 05:00:00 7.2 9 Nordeste 13 Nordeste 0 -- -- 90
2019-05-24 04:00:00 6.8 6 Norte 11 Norte 0 -- -- 89
2019-05-24 03:00:00 7.1 5 Nordeste 15 Norte 0 -- -- 88
2019-05-24 02:00:00 7.8 8 Norte 20 Norte 0 -- -- 85
2019-05-24 01:00:00 7.9 7 Norte 19 Noroeste 0 -- -- 86
2019-05-24 00:00:00 8.2 7 Norte 14 Noroeste 0 -- -- 87
2019-05-23 23:00:00 9.1 0 Calma 17 Norte 0 -- -- 85
2019-05-23 22:00:00 10.9 10 Norte 22 Norte 0 -- -- 78
2019-05-23 21:00:00 13.2 3 Este 24 Nordeste 0 -- -- 74
2019-05-23 20:00:00 17.2 6 Nordeste 28 Oeste 0 -- -- 59
2019-05-23 19:00:00 17.7 20 Oeste 36 Noroeste 0 -- -- 51
2019-05-23 18:00:00 18.3 14 Noroeste 27 Noroeste 0 -- -- 55
2019-05-23 17:00:00 18.2 12 Noroeste 30 Noroeste 0 -- -- 56
2019-05-23 16:00:00 16.2 18 Oeste 31 Noroeste 0 -- -- 62
2019-05-23 15:00:00 15.1 22 Oeste 31 Oeste 0 -- -- 73
2019-05-23 14:00:00 17.1 18 Oeste 29 Oeste 0 -- -- 64
2019-05-23 13:00:00 16.5 11 Sudoeste 24 Oeste 0 -- -- 64
2019-05-23 12:00:00 15 8 Oeste 19 Oeste 0 -- -- 69
2019-05-23 11:00:00 14.8 5 Sudeste 19 Oeste 0 -- -- 72
2019-05-23 10:00:00 13.9 4 Oeste 15 Oeste 0 -- -- 74
2019-05-23 09:00:00 11.9 9 Oeste 18 Oeste 0 -- -- 79
2019-05-23 08:00:00 11 0 Calma 17 Oeste 0 -- -- 87
2019-05-23 07:00:00 11.6 10 Oeste 15 Sudoeste 0 -- -- 84
2019-05-23 06:00:00 12 0 Calma 8 Oeste 0 -- -- 84
2019-05-23 05:00:00 11.6 5 Noroeste 9 Noroeste 0 -- -- 84
2019-05-23 04:00:00 12.6 0 Calma 10 Oeste 0 -- -- 80
2019-05-23 03:00:00 12.7 10 Oeste 17 Noroeste 0 -- -- 80
2019-05-23 02:00:00 14.3 11 Sudeste 14 Sudeste 0 -- -- 73
2019-05-23 01:00:00 14 5 Este 8 Este 0 -- -- 70
2019-05-23 00:00:00 14.9 0 Calma 9 Oeste 0 -- -- 69
2019-05-22 23:00:00 15.2 5 Oeste 11 Noroeste 0 -- -- 71
2019-05-22 22:00:00 16.2 4 Oeste 14 Noroeste 0 -- -- 67
2019-05-22 21:00:00 18 5 Oeste 21 Norte 0 -- -- 63
2019-05-22 20:00:00 20.5 13 Norte 26 Oeste 0 -- -- 56
2019-05-22 19:00:00 23.8 14 Oeste 34 Oeste 0 -- -- 37
2019-05-22 18:00:00 23.6 17 Oeste 37 Oeste 0 -- -- 38
2019-05-22 17:00:00 24.2 13 Oeste 31 Oeste 0 -- -- 38
2019-05-22 16:00:00 23.6 13 Noroeste 28 Oeste 0 -- -- 41
2019-05-22 15:00:00 22.5 15 Oeste 31 Oeste 0 -- -- 40
2019-05-22 14:00:00 21.9 15 Sudoeste 36 Oeste 0 -- -- 46
2019-05-22 13:00:00 20.8 13 Sudoeste 26 Sudoeste 0 -- -- 45
2019-05-22 12:00:00 19.6 8 Oeste 18 Oeste 0 -- -- 52
2019-05-22 11:00:00 17.1 4 Oeste 12 Noroeste 0 -- -- 68
2019-05-22 10:00:00 13.8 3 Oeste 14 Noroeste 0 -- -- 80
2019-05-22 09:00:00 12.3 0 Calma 9 Sur 0 -- -- 86
2019-05-22 08:00:00 10.4 2 Sudoeste 8 Sudeste 0 -- -- 85
2019-05-22 07:00:00 9.2 0 Calma 5 Nordeste 0 -- -- 91
2019-05-22 06:00:00 9 0 Calma 8 Oeste 0 -- -- 92
2019-05-22 05:00:00 9.6 5 Sudeste 10 Este 0 -- -- 90
2019-05-22 04:00:00 9.8 3 Sur 11 Sudeste 0 -- -- 90
2019-05-22 03:00:00 9.6 5 Este 7 Este 0 -- -- 90
2019-05-22 02:00:00 10.5 3 Este 6 Este 0 -- -- 85
2019-05-22 01:00:00 10.6 4 Sudeste 8 Este 0 -- -- 85
2019-05-22 00:00:00 10.9 5 Este 10 Sudeste 0 -- -- 83